createdAt,value
2023-08-29T00:01:55.258Z,13.46
2023-08-29T00:04:23.038Z,13.42
2023-08-29T00:06:52.108Z,13.46
2023-08-29T00:09:19.808Z,13.49
2023-08-29T00:11:47.537Z,13.52
2023-08-29T00:14:15.239Z,13.56
2023-08-29T00:16:42.999Z,13.50
2023-08-29T00:19:11.177Z,13.48
2023-08-29T00:21:38.922Z,13.46
2023-08-29T00:24:08.698Z,13.44
2023-08-29T00:26:36.531Z,13.45
2023-08-29T00:29:04.404Z,13.49
2023-08-29T00:31:32.154Z,13.44
2023-08-29T00:34:01.150Z,13.41
2023-08-29T00:36:28.892Z,13.39
2023-08-29T00:38:56.665Z,13.35
2023-08-29T00:41:25.645Z,13.37
2023-08-29T00:43:53.301Z,13.37
2023-08-29T00:46:21.313Z,13.38
2023-08-29T00:48:50.530Z,13.39
2023-08-29T00:51:19.467Z,13.38
2023-08-29T00:53:47.506Z,13.38
2023-08-29T00:56:18.878Z,13.40
2023-08-29T00:58:48.269Z,13.37
2023-08-29T01:01:18.340Z,13.42
2023-08-29T01:03:46.907Z,13.42
2023-08-29T01:06:16.600Z,13.45
2023-08-29T01:08:45.485Z,13.39
2023-08-29T01:11:18.258Z,13.32
2023-08-29T01:14:01.281Z,13.33
2023-08-29T01:16:33.186Z,13.30
2023-08-29T01:19:08.730Z,13.28
2023-08-29T01:21:41.755Z,13.23
2023-08-29T01:24:12.740Z,13.20
2023-08-29T01:26:42.745Z,13.17
2023-08-29T01:29:10.745Z,13.18
2023-08-29T01:31:39.459Z,13.19
2023-08-29T01:34:09.365Z,13.19
2023-08-29T01:36:41.079Z,13.23
2023-08-29T01:39:08.886Z,13.22
2023-08-29T01:41:36.830Z,13.21
2023-08-29T01:44:07.300Z,13.21
2023-08-29T01:46:35.263Z,13.25
2023-08-29T01:49:04.556Z,13.24
2023-08-29T01:51:32.625Z,13.22
2023-08-29T01:54:00.513Z,13.26
2023-08-29T01:56:30.811Z,13.19
2023-08-29T01:59:00.955Z,13.25
2023-08-29T02:01:31.834Z,13.22
2023-08-29T02:03:59.732Z,13.23
2023-08-29T02:06:27.490Z,13.26
2023-08-29T02:08:55.316Z,13.11
2023-08-29T02:11:23.007Z,13.19
2023-08-29T02:13:50.776Z,13.19
2023-08-29T02:16:18.554Z,13.22
2023-08-29T02:18:47.890Z,13.25
2023-08-29T02:21:15.617Z,13.27
2023-08-29T02:23:43.576Z,13.25
2023-08-29T02:26:11.324Z,13.33
2023-08-29T02:28:40.025Z,13.33
2023-08-29T02:31:09.245Z,13.32
2023-08-29T02:33:38.888Z,13.32
2023-08-29T02:36:09.138Z,13.32
2023-08-29T02:38:37.253Z,13.30
2023-08-29T02:41:04.997Z,13.33
2023-08-29T02:43:33.876Z,13.37
2023-08-29T02:46:01.972Z,13.40
2023-08-29T02:48:29.729Z,13.40
2023-08-29T02:50:57.808Z,13.40
2023-08-29T02:53:27.025Z,13.38
2023-08-29T02:55:55.317Z,13.37
2023-08-29T02:58:23.151Z,13.37
2023-08-29T03:00:57.194Z,13.34
2023-08-29T03:03:25.184Z,13.38
2023-08-29T03:05:56.328Z,13.37
2023-08-29T03:08:24.068Z,13.38
2023-08-29T03:10:54.009Z,13.36
2023-08-29T03:13:22.627Z,13.35
2023-08-29T03:15:50.936Z,13.33
2023-08-29T03:18:19.141Z,13.29
2023-08-29T03:20:47.232Z,13.31
2023-08-29T03:23:15.120Z,13.26
2023-08-29T03:25:42.922Z,13.30
2023-08-29T03:28:12.020Z,13.30
2023-08-29T03:30:39.563Z,13.27
2023-08-29T03:33:07.384Z,13.27
2023-08-29T03:35:37.796Z,13.26
2023-08-29T03:38:07.590Z,13.29
2023-08-29T03:40:35.426Z,13.27
2023-08-29T03:43:03.084Z,13.26
2023-08-29T03:45:32.733Z,13.24
2023-08-29T03:48:00.762Z,13.21
2023-08-29T03:50:29.520Z,13.20
2023-08-29T03:52:57.656Z,13.23
2023-08-29T03:55:25.635Z,13.16
2023-08-29T03:57:53.347Z,13.13
2023-08-29T04:00:21.330Z,13.14
2023-08-29T04:02:50.501Z,13.08
2023-08-29T04:05:19.367Z,13.10
2023-08-29T04:07:49.020Z,13.07
2023-08-29T04:10:16.860Z,13.03
2023-08-29T04:12:44.663Z,13.03
2023-08-29T04:15:13.733Z,13.03
2023-08-29T04:17:41.686Z,13.04
2023-08-29T04:20:13.918Z,13.01
2023-08-29T04:22:41.782Z,12.99
2023-08-29T04:25:10.215Z,13.07
2023-08-29T04:27:38.885Z,13.07
2023-08-29T04:30:07.879Z,13.05
2023-08-29T04:32:38.144Z,13.10
2023-08-29T04:35:07.185Z,13.05
2023-08-29T04:37:36.268Z,13.03
2023-08-29T04:40:07.524Z,13.01
2023-08-29T04:42:35.316Z,12.96
2023-08-29T04:45:05.356Z,12.97
2023-08-29T04:47:33.244Z,13.02
2023-08-29T04:50:01.708Z,13.02
2023-08-29T04:52:29.875Z,13.00
2023-08-29T04:54:59.145Z,12.99
2023-08-29T04:57:27.503Z,12.97
2023-08-29T04:59:56.979Z,12.98
2023-08-29T05:02:24.778Z,13.04
2023-08-29T05:04:53.722Z,13.06
2023-08-29T05:07:21.581Z,13.07
2023-08-29T05:09:49.436Z,13.03
2023-08-29T05:12:18.921Z,13.01
2023-08-29T05:14:46.896Z,13.05
2023-08-29T05:17:15.701Z,13.06
2023-08-29T05:19:44.502Z,13.09
2023-08-29T05:22:12.460Z,13.08
2023-08-29T05:24:40.266Z,13.09
2023-08-29T05:27:08.051Z,13.16
2023-08-29T05:29:37.121Z,13.16
2023-08-29T05:32:05.427Z,13.21
2023-08-29T05:34:33.209Z,13.19
2023-08-29T05:37:00.914Z,13.26
2023-08-29T05:39:28.550Z,13.23
2023-08-29T05:41:56.224Z,13.23
2023-08-29T05:44:23.963Z,13.24
2023-08-29T05:46:53.423Z,13.31
2023-08-29T05:49:21.137Z,13.33
2023-08-29T05:51:50.221Z,13.38
2023-08-29T05:54:19.524Z,13.42
2023-08-29T05:56:47.187Z,13.44
2023-08-29T05:59:16.439Z,13.55
2023-08-29T06:01:44.411Z,13.55
2023-08-29T06:04:13.484Z,13.62
2023-08-29T06:06:41.358Z,13.62
2023-08-29T06:09:09.564Z,13.69
2023-08-29T06:11:37.301Z,13.74
2023-08-29T06:14:05.127Z,13.72
2023-08-29T06:16:32.846Z,13.81
2023-08-29T06:19:00.703Z,13.77
2023-08-29T06:21:29.796Z,13.76
2023-08-29T06:23:57.947Z,13.74
2023-08-29T06:26:25.788Z,13.77
2023-08-29T06:28:53.498Z,13.78
2023-08-29T06:31:21.276Z,13.72
2023-08-29T06:33:49.000Z,13.81
2023-08-29T06:36:16.982Z,13.94
2023-08-29T06:38:46.095Z,14.05
2023-08-29T06:41:13.663Z,13.95
2023-08-29T06:43:41.509Z,14.01
2023-08-29T06:46:09.438Z,14.04
2023-08-29T06:48:38.023Z,13.99
2023-08-29T06:51:05.737Z,13.92
2023-08-29T06:53:33.489Z,13.79
2023-08-29T06:56:02.564Z,13.86
2023-08-29T06:58:30.523Z,13.79
2023-08-29T07:00:58.303Z,13.73
2023-08-29T07:03:26.239Z,13.66
2023-08-29T07:05:55.161Z,13.68
2023-08-29T07:08:22.964Z,13.67
2023-08-29T07:10:50.946Z,13.59
2023-08-29T07:13:20.046Z,13.60
2023-08-29T07:15:47.972Z,13.57
2023-08-29T07:18:15.757Z,13.59
2023-08-29T07:20:43.957Z,13.63
2023-08-29T07:23:11.669Z,13.62
2023-08-29T07:25:41.016Z,13.68
2023-08-29T07:28:10.808Z,13.76
2023-08-29T07:30:44.234Z,13.85
2023-08-29T07:33:12.941Z,13.89
2023-08-29T07:35:41.003Z,13.92
2023-08-29T07:38:09.014Z,13.91
2023-08-29T07:40:36.892Z,13.93
2023-08-29T07:43:06.913Z,14.00
2023-08-29T07:45:35.622Z,14.03
2023-08-29T07:48:05.725Z,14.09
2023-08-29T07:50:33.905Z,14.13
2023-08-29T07:53:02.054Z,14.10
2023-08-29T07:55:29.860Z,14.06
2023-08-29T07:57:58.330Z,13.92
2023-08-29T08:00:29.320Z,13.87
2023-08-29T08:02:57.263Z,13.93
2023-08-29T08:05:26.670Z,13.95
2023-08-29T08:07:54.452Z,13.97
2023-08-29T08:10:22.110Z,13.96
2023-08-29T08:12:50.464Z,13.99
2023-08-29T08:15:18.757Z,13.97
2023-08-29T08:17:47.932Z,13.93
2023-08-29T08:20:15.682Z,13.90
2023-08-29T08:22:44.781Z,13.90
2023-08-29T08:25:12.387Z,13.91
2023-08-29T08:27:41.684Z,13.92
2023-08-29T08:30:10.177Z,13.85
2023-08-29T08:32:38.275Z,13.94
2023-08-29T08:35:08.065Z,13.95
2023-08-29T08:37:37.109Z,14.07
2023-08-29T08:40:11.343Z,14.08
2023-08-29T08:42:40.991Z,14.08
2023-08-29T08:45:10.240Z,14.10
2023-08-29T08:47:38.485Z,14.11
2023-08-29T08:50:09.638Z,14.13
2023-08-29T08:52:38.282Z,14.18
2023-08-29T08:55:09.014Z,14.10
2023-08-29T08:57:37.769Z,14.05
2023-08-29T09:00:08.302Z,14.05
2023-08-29T09:02:37.672Z,13.97
2023-08-29T09:05:08.258Z,13.98
2023-08-29T09:07:39.462Z,14.00
2023-08-29T09:10:11.198Z,14.02
2023-08-29T09:12:47.150Z,14.04
2023-08-29T09:15:17.218Z,14.00
2023-08-29T09:17:49.286Z,13.97
2023-08-29T09:20:17.865Z,14.06
2023-08-29T09:22:46.931Z,14.06
2023-08-29T09:25:16.526Z,13.97
2023-08-29T09:27:46.241Z,14.04
2023-08-29T09:30:16.625Z,14.21
2023-08-29T09:32:44.938Z,14.33
2023-08-29T09:35:17.124Z,14.40
2023-08-29T09:37:52.022Z,14.41
2023-08-29T09:42:57.180Z,14.44
2023-08-29T09:45:24.984Z,14.33
2023-08-29T09:47:56.134Z,14.22
2023-08-29T09:50:23.913Z,14.25
2023-08-29T09:52:54.002Z,14.29
2023-08-29T09:55:25.114Z,14.34
2023-08-29T09:57:54.457Z,14.52
2023-08-29T10:00:23.013Z,14.64
2023-08-29T10:02:56.774Z,14.68
2023-08-29T10:05:28.376Z,14.74
2023-08-29T10:07:59.909Z,14.69
2023-08-29T10:10:28.446Z,14.81
2023-08-29T10:12:57.386Z,14.85
2023-08-29T10:15:25.788Z,14.93
2023-08-29T10:17:54.565Z,15.17
2023-08-29T10:20:23.729Z,15.30
2023-08-29T10:22:54.083Z,15.36
2023-08-29T10:25:23.145Z,15.24
2023-08-29T10:27:52.578Z,15.21
2023-08-29T10:30:20.665Z,15.12
2023-08-29T10:32:49.637Z,15.11
2023-08-29T10:35:19.643Z,15.10
2023-08-29T10:37:51.149Z,15.06
2023-08-29T10:40:19.353Z,15.09
2023-08-29T10:42:55.826Z,15.14
2023-08-29T10:45:24.036Z,15.23
2023-08-29T10:47:53.149Z,15.55
2023-08-29T10:50:23.327Z,15.70
2023-08-29T10:52:57.272Z,15.76
2023-08-29T10:55:26.392Z,15.84
2023-08-29T10:57:59.527Z,15.76
2023-08-29T11:00:35.684Z,15.72
2023-08-29T11:03:04.146Z,15.57
2023-08-29T11:05:32.383Z,15.71
2023-08-29T11:08:23.206Z,15.63
2023-08-29T11:11:16.132Z,15.61
2023-08-29T11:14:01.847Z,15.60
2023-08-29T11:16:30.706Z,15.70
2023-08-29T11:19:09.159Z,15.76
2023-08-29T11:21:36.891Z,15.94
2023-08-29T11:24:15.086Z,16.00
2023-08-29T11:26:46.846Z,15.98
2023-08-29T11:29:15.965Z,16.13
2023-08-29T11:31:45.384Z,16.15
2023-08-29T11:34:14.811Z,16.19
2023-08-29T11:36:43.897Z,16.11
2023-08-29T11:39:11.618Z,15.95
2023-08-29T11:42:02.911Z,15.86
2023-08-29T11:44:59.525Z,15.72
2023-08-29T11:47:18.603Z,15.82
2023-08-29T11:49:49.785Z,15.79
2023-08-29T11:52:18.053Z,15.81
2023-08-29T11:54:49.274Z,15.92
2023-08-29T11:57:17.980Z,15.93
2023-08-29T11:59:48.357Z,15.92
2023-08-29T12:02:19.987Z,16.01
2023-08-29T12:04:49.386Z,16.12
2023-08-29T12:07:17.784Z,16.09
2023-08-29T12:09:47.146Z,16.11
2023-08-29T12:12:30.309Z,16.18
2023-08-29T12:14:59.813Z,16.27
2023-08-29T12:17:35.149Z,16.17
2023-08-29T12:20:03.225Z,16.36
2023-08-29T12:22:31.448Z,16.35
2023-08-29T12:24:59.655Z,16.30
2023-08-29T12:27:27.425Z,16.44
2023-08-29T12:29:55.184Z,16.36
2023-08-29T12:32:28.536Z,16.38
2023-08-29T12:34:58.022Z,16.31
2023-08-29T12:37:26.733Z,16.31
2023-08-29T12:39:54.856Z,16.35
2023-08-29T12:42:22.892Z,16.31
2023-08-29T12:44:50.872Z,16.20
2023-08-29T12:47:18.832Z,16.20
2023-08-29T12:49:48.252Z,16.36
2023-08-29T12:52:16.327Z,16.37
2023-08-29T12:54:44.640Z,16.39
2023-08-29T12:57:12.711Z,16.47
2023-08-29T12:59:40.838Z,16.47
2023-08-29T13:02:09.183Z,16.53
2023-08-29T13:04:37.195Z,16.46
2023-08-29T13:07:06.811Z,16.50
2023-08-29T13:09:37.498Z,16.61
2023-08-29T13:12:08.440Z,16.62
2023-08-29T13:14:39.147Z,16.73
2023-08-29T13:17:11.168Z,16.74
2023-08-29T13:19:41.470Z,16.69
2023-08-29T13:22:11.443Z,16.68
2023-08-29T13:24:39.308Z,16.79
2023-08-29T13:27:12.442Z,16.85
2023-08-29T13:29:40.510Z,16.82
2023-08-29T13:32:08.601Z,16.75
2023-08-29T13:34:36.461Z,16.85
2023-08-29T13:37:04.509Z,16.96
2023-08-29T13:39:34.106Z,16.97
2023-08-29T13:42:01.950Z,16.91
2023-08-29T13:44:29.991Z,16.72
2023-08-29T13:46:58.258Z,16.82
2023-08-29T13:49:26.175Z,16.77
2023-08-29T13:51:57.381Z,16.82
2023-08-29T13:54:26.256Z,16.82
2023-08-29T13:56:56.854Z,16.97
2023-08-29T13:59:24.978Z,16.94
2023-08-29T14:01:53.138Z,16.98
2023-08-29T14:04:21.121Z,17.01
2023-08-29T14:06:48.972Z,16.96
2023-08-29T14:09:17.103Z,17.02
2023-08-29T14:11:45.297Z,17.09
2023-08-29T14:14:14.515Z,17.18
2023-08-29T14:16:43.745Z,17.18
2023-08-29T14:19:14.086Z,17.22
2023-08-29T14:21:42.122Z,17.28
2023-08-29T14:24:10.200Z,17.50
2023-08-29T14:26:38.070Z,17.68
2023-08-29T14:29:07.968Z,17.75
2023-08-29T14:31:37.007Z,17.48
2023-08-29T14:34:04.957Z,17.57
2023-08-29T14:36:32.889Z,17.76
2023-08-29T14:39:01.812Z,17.75
2023-08-29T14:41:30.034Z,17.64
2023-08-29T14:43:57.837Z,17.61
2023-08-29T14:46:25.658Z,17.53
2023-08-29T14:48:54.781Z,17.46
2023-08-29T14:51:22.505Z,17.52
2023-08-29T14:53:51.697Z,17.60
2023-08-29T14:56:19.834Z,17.60
2023-08-29T14:58:48.392Z,17.62
2023-08-29T15:01:16.114Z,17.43
2023-08-29T15:03:43.994Z,17.56
2023-08-29T15:06:15.545Z,17.41
2023-08-29T15:08:43.419Z,17.45
2023-08-29T15:11:11.225Z,17.29
2023-08-29T15:13:41.189Z,17.26
2023-08-29T15:16:09.007Z,17.20
2023-08-29T15:18:36.829Z,17.08
2023-08-29T15:21:06.699Z,17.09
2023-08-29T15:23:35.843Z,17.07
2023-08-29T15:26:05.115Z,17.07
2023-08-29T15:28:33.202Z,17.04
2023-08-29T15:31:02.517Z,16.97
2023-08-29T15:33:30.630Z,16.99
2023-08-29T15:35:59.381Z,16.93
2023-08-29T15:38:27.111Z,16.80
2023-08-29T15:40:56.517Z,16.75
2023-08-29T15:43:25.637Z,16.74
2023-08-29T15:45:55.300Z,16.63
2023-08-29T15:48:23.150Z,16.55
2023-08-29T15:50:54.228Z,16.55
2023-08-29T15:53:22.000Z,16.52
2023-08-29T15:55:50.504Z,16.53
2023-08-29T15:58:19.775Z,16.46
2023-08-29T16:00:47.516Z,16.48
2023-08-29T16:03:15.237Z,16.56
2023-08-29T16:05:43.037Z,16.61
2023-08-29T16:08:11.185Z,16.55
2023-08-29T16:10:41.569Z,16.51
2023-08-29T16:13:09.448Z,16.60
2023-08-29T16:15:38.575Z,16.61
2023-08-29T16:18:06.689Z,16.65
2023-08-29T16:20:35.343Z,16.53
2023-08-29T16:23:03.065Z,16.55
2023-08-29T16:25:31.069Z,16.54
2023-08-29T16:28:01.111Z,16.56
2023-08-29T16:30:29.408Z,16.57
2023-08-29T16:32:58.548Z,16.59
2023-08-29T16:35:26.354Z,16.61
2023-08-29T16:38:01.695Z,16.57
2023-08-29T16:40:30.851Z,16.57
2023-08-29T16:42:58.680Z,16.54
2023-08-29T16:45:26.625Z,16.44
2023-08-29T16:47:56.284Z,16.28
2023-08-29T16:50:26.343Z,16.26
2023-08-29T16:52:54.086Z,16.21
2023-08-29T16:55:22.014Z,16.09
2023-08-29T16:57:49.737Z,15.95
2023-08-29T17:00:18.437Z,15.91
2023-08-29T17:02:46.340Z,15.87
2023-08-29T17:05:14.115Z,15.87
2023-08-29T17:07:43.248Z,15.73
2023-08-29T17:10:11.385Z,15.63
2023-08-29T17:12:39.129Z,15.60
2023-08-29T17:15:08.609Z,15.57
2023-08-29T17:17:36.182Z,15.39
2023-08-29T17:20:04.659Z,15.37
2023-08-29T17:22:32.357Z,15.33
2023-08-29T17:25:03.253Z,15.22
2023-08-29T17:27:30.967Z,15.20
2023-08-29T17:29:58.725Z,15.13
2023-08-29T17:32:26.512Z,15.08
2023-08-29T17:34:54.250Z,14.99
2023-08-29T17:37:21.981Z,14.99
2023-08-29T17:39:51.330Z,14.99
2023-08-29T17:42:20.724Z,14.97
2023-08-29T17:44:48.478Z,14.93
2023-08-29T17:47:16.563Z,14.90
2023-08-29T17:49:44.303Z,14.82
2023-08-29T17:52:12.458Z,14.89
2023-08-29T17:54:40.217Z,14.85
2023-08-29T17:57:07.917Z,14.79
2023-08-29T17:59:36.990Z,14.68
2023-08-29T18:02:05.040Z,14.68
2023-08-29T18:04:32.753Z,14.61
2023-08-29T18:07:00.536Z,14.59
2023-08-29T18:09:28.244Z,14.46
2023-08-29T18:11:56.060Z,14.50
2023-08-29T18:14:23.792Z,14.46
2023-08-29T18:16:52.836Z,14.46
2023-08-29T18:19:20.978Z,14.33
2023-08-29T18:21:48.906Z,14.32
2023-08-29T18:24:16.773Z,14.35
2023-08-29T18:26:44.472Z,14.33
2023-08-29T18:29:12.220Z,14.33
2023-08-29T18:31:40.135Z,14.31
2023-08-29T18:34:09.168Z,14.32
2023-08-29T18:36:39.694Z,14.29
2023-08-29T18:39:09.043Z,14.22
2023-08-29T18:41:36.892Z,14.25
2023-08-29T18:44:04.945Z,14.24
2023-08-29T18:46:33.246Z,14.22
2023-08-29T18:49:01.062Z,14.17
2023-08-29T18:51:31.465Z,14.22
2023-08-29T18:53:59.188Z,14.27
2023-08-29T18:56:26.937Z,14.30
2023-08-29T18:58:54.712Z,14.29
2023-08-29T19:01:22.405Z,14.33
2023-08-29T19:03:50.320Z,14.21
2023-08-29T19:06:21.380Z,14.15
2023-08-29T19:08:52.304Z,14.15
2023-08-29T19:11:19.973Z,14.11
2023-08-29T19:13:47.763Z,14.11
2023-08-29T19:16:15.595Z,14.17
2023-08-29T19:18:43.385Z,14.14
2023-08-29T19:21:11.039Z,14.13
2023-08-29T19:23:38.870Z,14.14
2023-08-29T19:26:07.904Z,14.15
2023-08-29T19:28:35.707Z,14.14
2023-08-29T19:31:03.475Z,14.15
2023-08-29T19:33:31.350Z,14.14
2023-08-29T19:36:00.480Z,14.13
2023-08-29T19:38:28.129Z,14.14
2023-08-29T19:40:57.353Z,14.14
2023-08-29T19:43:26.742Z,14.14
2023-08-29T19:45:54.424Z,14.14
2023-08-29T19:48:22.177Z,14.14
2023-08-29T19:50:49.856Z,14.08
2023-08-29T19:53:18.848Z,14.09
2023-08-29T19:55:47.208Z,14.06
2023-08-29T19:58:15.483Z,14.10
2023-08-29T20:00:44.680Z,14.10
2023-08-29T20:03:12.391Z,14.06
2023-08-29T20:05:40.205Z,14.06
2023-08-29T20:08:08.674Z,14.05
2023-08-29T20:10:37.477Z,14.03
2023-08-29T20:13:05.810Z,14.03
2023-08-29T20:15:33.470Z,14.08
2023-08-29T20:18:02.496Z,14.07
2023-08-29T20:20:30.195Z,13.98
2023-08-29T20:22:57.849Z,14.02
2023-08-29T20:25:26.183Z,13.95
2023-08-29T20:27:53.887Z,14.02
2023-08-29T20:30:22.095Z,14.01
2023-08-29T20:32:49.972Z,13.95
2023-08-29T20:35:19.186Z,13.98
2023-08-29T20:37:46.767Z,14.00
2023-08-29T20:40:15.589Z,13.97
2023-08-29T20:42:43.287Z,13.99
2023-08-29T20:45:12.170Z,13.93
2023-08-29T20:47:40.039Z,13.92
2023-08-29T20:50:08.587Z,13.97
2023-08-29T20:52:37.708Z,13.96
2023-08-29T20:55:06.159Z,13.97
2023-08-29T20:57:33.916Z,13.98
2023-08-29T21:00:01.642Z,13.96
2023-08-29T21:02:29.537Z,13.97
2023-08-29T21:04:58.505Z,13.95
2023-08-29T21:07:26.136Z,13.94
2023-08-29T21:09:55.132Z,13.94
2023-08-29T21:12:23.197Z,13.77
2023-08-29T21:14:51.059Z,13.83
2023-08-29T21:17:20.721Z,13.86
2023-08-29T21:19:48.414Z,13.80
2023-08-29T21:22:16.057Z,13.83
2023-08-29T21:24:44.155Z,13.78
2023-08-29T21:27:13.668Z,13.81
2023-08-29T21:29:41.317Z,13.81
2023-08-29T21:32:09.018Z,13.79
2023-08-29T21:34:36.690Z,13.87
2023-08-29T21:37:04.592Z,13.85
2023-08-29T21:39:33.062Z,13.81
2023-08-29T21:42:00.758Z,13.84
2023-08-29T21:44:29.856Z,13.74
2023-08-29T21:46:57.356Z,13.78
2023-08-29T21:49:24.993Z,13.81
2023-08-29T21:51:52.642Z,13.85
2023-08-29T21:54:20.286Z,13.81
2023-08-29T21:56:47.933Z,13.81
2023-08-29T21:59:15.583Z,13.85
2023-08-29T22:01:44.856Z,13.82
2023-08-29T22:04:12.853Z,13.81
2023-08-29T22:06:40.504Z,13.85
2023-08-29T22:09:08.211Z,13.75
2023-08-29T22:11:35.881Z,13.78
2023-08-29T22:14:03.615Z,13.80
2023-08-29T22:16:31.277Z,13.76
2023-08-29T22:19:00.265Z,13.75
2023-08-29T22:21:27.915Z,13.75
2023-08-29T22:23:55.771Z,13.72
2023-08-29T22:26:23.604Z,13.74
2023-08-29T22:28:51.285Z,13.76
2023-08-29T22:31:19.038Z,13.74
2023-08-29T22:33:46.716Z,13.76
2023-08-29T22:36:15.975Z,13.67
2023-08-29T22:38:43.620Z,13.64
2023-08-29T22:41:21.349Z,13.60
2023-08-29T22:43:52.917Z,13.66
2023-08-29T22:46:20.589Z,13.66
2023-08-29T22:48:48.232Z,13.64
2023-08-29T22:51:17.239Z,13.64
2023-08-29T22:53:46.953Z,13.66
2023-08-29T22:56:15.128Z,13.67
2023-08-29T22:58:42.778Z,13.64
2023-08-29T23:01:10.429Z,13.62
2023-08-29T23:03:38.141Z,13.62
2023-08-29T23:06:06.614Z,13.58
2023-08-29T23:08:35.640Z,13.55
2023-08-29T23:11:05.237Z,13.45
2023-08-29T23:13:32.920Z,13.48
2023-08-29T23:16:03.980Z,13.49
2023-08-29T23:18:31.724Z,13.48
2023-08-29T23:20:59.401Z,13.39
2023-08-29T23:23:27.043Z,13.39
2023-08-29T23:25:57.167Z,13.39
2023-08-29T23:28:25.397Z,13.33
2023-08-29T23:30:54.030Z,13.31
2023-08-29T23:33:22.722Z,13.30
2023-08-29T23:35:50.482Z,13.35
2023-08-29T23:38:18.656Z,13.36
2023-08-29T23:40:48.910Z,13.37
2023-08-29T23:43:18.619Z,13.36
2023-08-29T23:45:46.651Z,13.37
2023-08-29T23:48:13.439Z,13.34
2023-08-29T23:50:41.129Z,13.34
2023-08-29T23:53:09.032Z,13.34
2023-08-29T23:55:36.720Z,13.36
2023-08-29T23:58:04.740Z,13.35
